Time,TemperatureF,DewpointF,PressureIn,WindDirection,WindDirectionDegrees,WindSpeedMPH,WindSpeedGustMPH,Humidity,HourlyPrecipIn,Conditions,Clouds,dailyrainin,SoftwareType,DateUTC
2014-11-24 07:52:00,59.0,54.0,-100.00,SSE,160,15.0,26.0,82,0.00,,,-99.99,,2014-11-24 12:52:00,
2014-11-24 08:22:00,59.0,53.0,-100.00,South,175,12.0,31.0,79,0.00,,,-99.99,,2014-11-24 13:22:00,
2014-11-24 08:52:00,60.0,52.0,-100.00,SSE,155,17.0,34.0,76,0.00,,,-99.99,,2014-11-24 13:52:00,
2014-11-24 09:22:00,60.0,52.0,-100.00,SSE,160,19.0,35.0,72,0.00,,,-99.99,,2014-11-24 14:22:00,
2014-11-24 09:52:00,61.0,50.0,-100.00,South,190,21.0,35.0,66,0.00,,,-99.99,,2014-11-24 14:52:00,
2014-11-24 10:23:00,61.0,48.0,-100.00,South,180,19.0,36.0,63,0.00,,,-99.99,,2014-11-24 15:23:00,
2014-11-24 10:53:00,62.0,47.0,-100.00,SSW,195,19.0,37.0,59,0.00,,,-99.99,,2014-11-24 15:53:00,
2014-11-24 11:24:00,62.0,47.0,-100.00,South,185,18.0,39.0,59,0.00,,,-99.99,,2014-11-24 16:24:00,
2014-11-24 11:53:00,60.0,49.0,-100.00,SW,220,18.0,34.0,66,0.00,,,-99.99,,2014-11-24 16:53:00,
2014-11-24 12:23:00,57.0,46.0,-100.00,SW,225,16.0,40.0,66,0.00,,,-99.99,,2014-11-24 17:23:00,
2014-11-24 12:53:00,56.0,45.0,-100.00,SSW,195,17.0,43.0,65,0.00,,,-99.99,,2014-11-24 17:53:00,
2014-11-24 13:23:00,54.0,43.0,-100.00,SW,230,12.0,39.0,66,0.00,,,-99.99,,2014-11-24 18:23:00,
2014-11-24 13:54:00,53.0,41.0,-100.00,SW,235,18.0,29.0,65,0.00,,,-99.99,,2014-11-24 18:54:00,
2014-11-24 14:22:00,52.0,41.0,-100.00,WSW,245,12.0,22.0,66,0.00,,,-99.99,,2014-11-24 19:22:00,
2014-11-24 14:52:00,51.0,38.0,-100.00,SW,225,16.0,32.0,63,0.00,,,-99.99,,2014-11-24 19:52:00,
2014-11-24 15:22:00,49.0,38.0,-100.00,SW,215,16.0,33.0,64,0.00,,,-99.99,,2014-11-24 20:22:00,
2014-11-24 15:53:00,48.0,36.0,-100.00,SW,220,11.0,24.0,63,0.00,,,-99.99,,2014-11-24 20:53:00,
2014-11-24 16:23:00,47.0,35.0,-100.00,SW,235,12.0,24.0,62,0.00,,,-99.99,,2014-11-24 21:23:00,
2014-11-24 16:54:00,45.0,34.0,-100.00,SW,230,11.0,19.0,65,0.00,,,-99.99,,2014-11-24 21:54:00,
2014-11-24 17:24:00,45.0,34.0,-100.00,SW,225,13.0,22.0,66,0.00,,,-99.99,,2014-11-24 22:24:00,
2014-11-24 17:53:00,44.0,32.0,-100.00,SW,230,8.0,21.0,63,0.00,,,-99.99,,2014-11-24 22:53:00,
2014-11-24 18:22:00,44.0,33.0,-100.00,SW,215,7.0,15.0,64,0.00,,,-99.99,,2014-11-24 23:22:00,
2014-11-24 18:53:00,44.0,31.0,-100.00,SW,225,9.0,19.0,61,0.00,,,-99.99,,2014-11-24 23:53:00,
2014-11-24 19:22:00,44.0,31.0,-100.00,SW,215,12.0,21.0,60,0.00,,,-99.99,,2014-11-25 00:22:00,
2014-11-24 19:52:00,43.0,31.0,-100.00,SW,220,11.0,17.0,61,0.00,,,-99.99,,2014-11-25 00:52:00,
2014-11-24 20:22:00,43.0,31.0,-100.00,SW,230,7.0,17.0,63,0.00,,,-99.99,,2014-11-25 01:22:00,